Kirksville Regional Airport Kirksville US
ICAO: KIRK
IATA: IRK
Category: Medium
Scheduled Services: Yes

Elevation: 966 ft
TransAlt. 18000 ft.

Airport Communications:
ASOS:121.125
KANSAS CITY CNTR:132.6
COLUMBIA RDO:122.2
CTAF/UNICOM:122.8

KIRK Zoom In..

If you have problems with the map follow the link
https://www.worldairports.se/pages/airport.php?
ICAO=KIRK

Runways:

(A) RW 09 length 1370 ft width 100 ft
---- / hdg 88

(B) RW 18 length 6005 ft width 100 ft
---- / hdg 177

(C) RW 27 length 1370 ft width 100 ft
---- / hdg 268

(D) RW 36 length 6005 ft width 100 ft
ILS 111.50 / hdg 357

Location; KIRK
Day. 20 / Time. 08.55 Zulu
* Altimeter: 30.60
* Temperature: -13° c. -8.6°f.
* Wind from: 300° Speed 07 kn.
Dewpoint: -16° c.
Visibility: 10 Statute Miles.
Clouds: Overcast 1700 ft.

KIRK 200855Z AUTO 30007KT 10SM OVC017 M13/M16 A3060 RMK AO2 SLP386 T11331161 53003


Wind From 300°
Speed 07 kn.

 
 
jpsmedia worldairports.se 2020   terms of use